createdAt,value
2022-12-06T00:01:32.141Z,50.60
2022-12-06T00:06:30.918Z,51.60
2022-12-06T00:09:01.856Z,49.63
2022-12-06T00:11:32.335Z,50.35
2022-12-06T00:14:02.654Z,47.92
2022-12-06T00:16:33.129Z,50.03
2022-12-06T00:19:01.955Z,49.17
2022-12-06T00:21:32.101Z,50.28
2022-12-06T00:24:01.752Z,48.80
2022-12-06T00:26:30.830Z,50.20
2022-12-06T00:29:00.774Z,51.20
2022-12-06T00:31:31.601Z,47.03
2022-12-06T00:34:02.286Z,47.97
2022-12-06T00:36:32.477Z,48.88
2022-12-06T00:39:01.627Z,43.53
2022-12-06T00:41:32.353Z,45.13
2022-12-06T00:44:00.431Z,45.17
2022-12-06T00:46:31.700Z,46.08
2022-12-06T00:49:01.524Z,41.80
2022-12-06T00:51:31.716Z,41.40
2022-12-06T00:54:00.382Z,46.38
2022-12-06T00:56:28.981Z,44.47
2022-12-06T00:58:57.594Z,38.60
2022-12-06T01:01:30.294Z,37.47
2022-12-06T01:06:30.661Z,39.05
2022-12-06T01:09:00.269Z,41.17
2022-12-06T01:11:29.493Z,41.95
2022-12-06T01:13:57.734Z,43.20
2022-12-06T01:16:29.017Z,39.45
2022-12-06T01:19:01.314Z,40.90
2022-12-06T01:21:29.858Z,38.33
2022-12-06T01:23:58.200Z,39.83
2022-12-06T01:26:27.938Z,38.22
2022-12-06T01:28:59.016Z,41.70
2022-12-06T01:31:30.842Z,40.60
2022-12-06T01:34:03.931Z,34.25
2022-12-06T01:36:32.088Z,40.15
2022-12-06T01:39:06.509Z,36.10
2022-12-06T01:41:34.650Z,34.35
2022-12-06T01:44:02.944Z,33.88
2022-12-06T01:46:34.027Z,34.88
2022-12-06T01:49:10.780Z,37.83
2022-12-06T01:51:39.620Z,36.55
2022-12-06T01:54:11.929Z,31.63
2022-12-06T01:56:41.023Z,35.72
2022-12-06T01:59:12.932Z,37.30
2022-12-06T02:01:41.881Z,36.33
2022-12-06T02:04:11.460Z,35.30
2022-12-06T02:06:41.349Z,37.30
2022-12-06T02:09:11.398Z,36.22
2022-12-06T02:11:41.526Z,36.28
2022-12-06T02:14:14.124Z,37.33
2022-12-06T02:16:57.059Z,40.25
2022-12-06T02:22:12.250Z,41.95
2022-12-06T02:25:00.596Z,35.75
2022-12-06T02:27:50.143Z,36.63
2022-12-06T02:30:46.289Z,42.60
2022-12-06T02:33:22.874Z,38.72
2022-12-06T02:35:57.731Z,38.80
2022-12-06T02:38:34.008Z,38.83
2022-12-06T02:41:10.510Z,36.38
2022-12-06T02:43:43.164Z,34.13
2022-12-06T02:46:14.479Z,36.08
2022-12-06T02:48:45.849Z,35.42
2022-12-06T02:51:18.135Z,34.92
2022-12-06T02:53:49.586Z,31.63
2022-12-06T02:56:19.484Z,34.13
2022-12-06T02:58:48.168Z,35.42
2022-12-06T03:01:19.230Z,34.63
2022-12-06T03:04:08.288Z,33.30
2022-12-06T03:06:49.127Z,35.63
2022-12-06T03:09:32.011Z,33.30
2022-12-06T03:12:07.726Z,32.65
2022-12-06T03:14:40.317Z,36.45
2022-12-06T03:17:17.475Z,34.85
2022-12-06T03:19:54.951Z,36.63
2022-12-06T03:22:28.750Z,37.95
2022-12-06T03:25:00.965Z,35.80
2022-12-06T03:27:31.254Z,36.25
2022-12-06T03:30:03.888Z,39.45
2022-12-06T03:32:39.296Z,37.25
2022-12-06T03:35:11.464Z,38.70
2022-12-06T03:37:45.676Z,41.28
2022-12-06T03:40:20.330Z,38.65
2022-12-06T03:42:51.439Z,41.35
2022-12-06T03:45:20.859Z,43.85
2022-12-06T03:47:56.294Z,45.10
2022-12-06T03:50:28.594Z,43.38
2022-12-06T03:52:56.882Z,45.65
2022-12-06T03:55:25.129Z,40.25
2022-12-06T03:57:53.285Z,48.40
2022-12-06T04:00:21.989Z,45.38
2022-12-06T04:02:53.845Z,43.55
2022-12-06T04:05:22.011Z,46.58
2022-12-06T04:07:50.171Z,44.63
2022-12-06T04:10:18.473Z,41.08
2022-12-06T04:13:01.502Z,40.30
2022-12-06T04:18:13.410Z,40.55
2022-12-06T04:21:01.491Z,43.85
2022-12-06T04:23:30.704Z,47.42
2022-12-06T04:25:58.826Z,42.78
2022-12-06T04:28:44.493Z,42.63
2022-12-06T04:31:30.377Z,48.45
2022-12-06T04:34:17.427Z,45.42
2022-12-06T04:37:05.740Z,41.15
2022-12-06T04:39:34.528Z,45.80
2022-12-06T04:42:20.763Z,42.47
2022-12-06T04:44:48.974Z,44.60
2022-12-06T04:47:17.483Z,36.45
2022-12-06T04:49:46.949Z,34.25
2022-12-06T04:52:15.583Z,32.67
2022-12-06T04:54:44.134Z,34.85
2022-12-06T04:57:13.979Z,31.42
2022-12-06T04:59:44.138Z,29.38
2022-12-06T05:02:14.323Z,30.75
2022-12-06T05:04:42.842Z,30.55
2022-12-06T05:07:12.864Z,32.15
2022-12-06T05:09:41.241Z,27.55
2022-12-06T05:12:09.817Z,27.35
2022-12-06T05:14:38.025Z,26.13
2022-12-06T05:17:06.079Z,25.27
2022-12-06T05:19:34.267Z,21.77
2022-12-06T05:22:02.371Z,23.88
2022-12-06T05:24:31.850Z,25.10
2022-12-06T05:26:59.958Z,18.67
2022-12-06T05:29:28.064Z,24.77
2022-12-06T05:31:56.232Z,21.33
2022-12-06T05:34:25.036Z,27.80
2022-12-06T05:36:53.149Z,24.10
2022-12-06T05:39:24.327Z,22.65
2022-12-06T05:41:53.804Z,17.33
2022-12-06T05:44:21.954Z,16.33
2022-12-06T05:46:50.065Z,15.95
2022-12-06T05:49:18.171Z,17.73
2022-12-06T05:51:46.267Z,20.00
2022-12-06T05:54:14.339Z,16.73
2022-12-06T05:56:42.491Z,16.58
2022-12-06T05:59:12.287Z,19.50
2022-12-06T06:01:40.514Z,20.35
2022-12-06T06:04:08.682Z,17.23
2022-12-06T06:06:36.804Z,19.65
2022-12-06T06:09:05.065Z,20.85
2022-12-06T06:11:33.192Z,20.60
2022-12-06T06:14:01.411Z,20.35
2022-12-06T06:16:32.514Z,17.77
2022-12-06T06:19:01.675Z,20.73
2022-12-06T06:21:30.022Z,18.55
2022-12-06T06:23:58.452Z,21.08
2022-12-06T06:26:26.566Z,20.67
2022-12-06T06:28:54.815Z,20.42
2022-12-06T06:31:23.075Z,20.65
2022-12-06T06:33:52.582Z,20.27
2022-12-06T06:36:20.743Z,20.30
2022-12-06T06:38:48.814Z,25.92
2022-12-06T06:41:17.271Z,24.15
2022-12-06T06:43:45.389Z,22.23
2022-12-06T06:46:13.583Z,22.73
2022-12-06T06:48:41.714Z,22.27
2022-12-06T06:51:13.176Z,22.75
2022-12-06T06:53:41.643Z,19.50
2022-12-06T06:56:11.138Z,22.00
2022-12-06T06:58:39.314Z,25.77
2022-12-06T07:01:16.367Z,26.52
2022-12-06T07:03:44.724Z,25.10
2022-12-06T07:06:14.746Z,28.05
2022-12-06T07:08:43.299Z,28.02
2022-12-06T07:11:12.092Z,30.80
2022-12-06T07:13:42.073Z,26.83
2022-12-06T07:16:15.056Z,27.13
2022-12-06T07:18:43.664Z,26.27
2022-12-06T07:21:14.985Z,27.67
2022-12-06T07:23:45.165Z,24.33
2022-12-06T07:26:15.004Z,27.15
2022-12-06T07:28:44.787Z,20.35
2022-12-06T07:31:15.139Z,20.23
2022-12-06T07:33:44.051Z,26.05
2022-12-06T07:36:17.255Z,22.58
2022-12-06T07:38:49.572Z,23.25
2022-12-06T07:41:36.763Z,21.48
2022-12-06T07:44:42.518Z,21.40
2022-12-06T07:47:10.620Z,26.77
2022-12-06T07:49:40.251Z,26.08
2022-12-06T07:52:12.145Z,20.77
2022-12-06T07:54:41.418Z,23.13
2022-12-06T07:57:09.610Z,20.98
2022-12-06T07:59:40.076Z,20.95
2022-12-06T08:02:08.964Z,22.15
2022-12-06T08:04:37.071Z,22.15
2022-12-06T08:07:05.144Z,23.52
2022-12-06T08:09:34.645Z,22.88
2022-12-06T08:12:02.736Z,23.92
2022-12-06T08:14:30.990Z,21.45
2022-12-06T08:17:01.367Z,24.90
2022-12-06T08:19:29.588Z,21.85
2022-12-06T08:21:57.772Z,24.35
2022-12-06T08:24:25.854Z,29.35
2022-12-06T08:26:56.198Z,22.17
2022-12-06T08:29:24.511Z,21.75
2022-12-06T08:31:52.640Z,21.30
2022-12-06T08:34:21.301Z,28.90
2022-12-06T08:36:49.463Z,23.25
2022-12-06T08:39:18.560Z,28.77
2022-12-06T08:41:59.048Z,20.40
2022-12-06T08:44:33.298Z,23.42
2022-12-06T08:47:02.676Z,21.57
2022-12-06T08:49:31.796Z,22.65
2022-12-06T08:52:00.398Z,21.38
2022-12-06T08:54:29.196Z,20.30
2022-12-06T08:56:57.291Z,15.18
2022-12-06T08:59:28.029Z,21.10
2022-12-06T09:01:57.595Z,17.83
2022-12-06T09:04:36.904Z,19.10
2022-12-06T09:07:10.194Z,18.00
2022-12-06T09:09:40.013Z,18.88
2022-12-06T09:12:08.266Z,14.88
2022-12-06T09:14:36.426Z,14.93
2022-12-06T09:17:07.263Z,15.82
2022-12-06T09:19:35.572Z,16.23
2022-12-06T09:22:03.714Z,15.25
2022-12-06T09:24:31.819Z,14.25
2022-12-06T09:27:00.003Z,31.67
2022-12-06T09:29:28.241Z,16.92
2022-12-06T09:31:56.595Z,16.45
2022-12-06T09:34:26.052Z,15.45
2022-12-06T09:36:57.574Z,17.20
2022-12-06T09:39:29.388Z,28.17
2022-12-06T09:42:25.540Z,22.37
2022-12-06T09:45:22.082Z,19.50
2022-12-06T09:48:08.184Z,18.17
2022-12-06T09:50:50.165Z,18.73
2022-12-06T09:53:27.060Z,18.25
2022-12-06T09:56:06.745Z,20.35
2022-12-06T09:58:54.401Z,15.30
2022-12-06T10:01:31.103Z,25.83
2022-12-06T10:04:13.358Z,17.25
2022-12-06T10:06:51.312Z,21.50
2022-12-06T10:09:33.757Z,24.75
2022-12-06T10:12:16.798Z,22.13
2022-12-06T10:17:40.917Z,20.52
2022-12-06T10:20:15.982Z,15.50
2022-12-06T10:23:00.587Z,16.77
2022-12-06T10:25:36.586Z,14.30
2022-12-06T10:28:12.481Z,13.63
2022-12-06T10:30:50.841Z,15.38
2022-12-06T10:33:28.698Z,17.00
2022-12-06T10:36:02.268Z,14.23
2022-12-06T10:38:36.552Z,16.73
2022-12-06T10:41:12.943Z,13.52
2022-12-06T10:43:52.538Z,23.80
2022-12-06T10:46:42.044Z,15.27
2022-12-06T10:49:18.328Z,14.20
2022-12-06T10:51:56.674Z,16.15
2022-12-06T10:54:31.569Z,14.40
2022-12-06T10:57:04.160Z,12.90
2022-12-06T10:59:38.320Z,20.90
2022-12-06T11:02:26.566Z,18.75
2022-12-06T11:04:59.346Z,27.48
2022-12-06T11:10:01.253Z,15.63
2022-12-06T11:12:33.656Z,15.55
2022-12-06T11:15:08.315Z,17.50
2022-12-06T11:17:43.286Z,16.25
2022-12-06T11:20:21.957Z,14.65
2022-12-06T11:23:06.169Z,27.52
2022-12-06T11:25:44.832Z,23.95
2022-12-06T11:28:25.785Z,25.92
2022-12-06T11:30:57.568Z,29.40
2022-12-06T11:33:31.638Z,19.05
2022-12-06T11:36:03.537Z,24.38
2022-12-06T11:38:32.536Z,29.97
2022-12-06T11:41:03.392Z,20.13
2022-12-06T11:43:35.279Z,19.42
2022-12-06T11:46:05.616Z,30.93
2022-12-06T11:48:35.896Z,22.55
2022-12-06T11:51:12.554Z,19.92
2022-12-06T11:53:49.068Z,18.95
2022-12-06T11:56:26.575Z,24.08
2022-12-06T11:59:07.967Z,27.75
2022-12-06T12:01:42.899Z,26.40
2022-12-06T12:04:42.618Z,30.73
2022-12-06T12:07:17.242Z,26.52
2022-12-06T12:09:54.347Z,26.33
2022-12-06T12:12:46.707Z,28.48
2022-12-06T12:15:18.424Z,26.33
2022-12-06T12:17:49.343Z,21.23
2022-12-06T12:20:22.275Z,36.58
2022-12-06T12:23:03.947Z,36.20
2022-12-06T12:25:34.405Z,27.40
2022-12-06T12:28:05.241Z,23.70
2022-12-06T12:30:36.159Z,26.73
2022-12-06T12:33:16.231Z,23.92
2022-12-06T12:35:46.253Z,32.33
2022-12-06T12:38:20.025Z,19.42
2022-12-06T12:40:50.980Z,26.83
2022-12-06T12:43:23.469Z,23.45
2022-12-06T12:46:20.520Z,23.38
2022-12-06T12:48:50.491Z,20.85
2022-12-06T12:51:28.031Z,20.50
2022-12-06T12:53:58.386Z,26.40
2022-12-06T12:56:26.936Z,32.50
2022-12-06T12:58:57.896Z,24.33
2022-12-06T13:01:42.347Z,19.92
2022-12-06T13:04:19.929Z,20.85
2022-12-06T13:06:52.481Z,15.27
2022-12-06T13:09:26.266Z,19.42
2022-12-06T13:11:59.370Z,20.70
2022-12-06T13:14:30.473Z,21.55
2022-12-06T13:17:04.326Z,21.90
2022-12-06T13:19:37.599Z,12.63
2022-12-06T13:22:16.097Z,17.27
2022-12-06T13:24:45.900Z,17.60
2022-12-06T13:27:18.729Z,13.38
2022-12-06T13:32:22.472Z,17.60
2022-12-06T13:34:56.662Z,16.98
2022-12-06T13:37:30.157Z,22.88
2022-12-06T13:39:59.734Z,21.33
2022-12-06T13:42:45.614Z,19.98
2022-12-06T13:45:42.781Z,16.20
2022-12-06T13:48:37.632Z,26.90
2022-12-06T13:51:10.217Z,22.20
2022-12-06T13:54:19.322Z,19.45
2022-12-06T13:56:47.559Z,16.45
2022-12-06T13:59:43.514Z,21.70
2022-12-06T14:02:51.638Z,21.38
2022-12-06T14:08:34.979Z,19.77
2022-12-06T14:11:23.513Z,23.08
2022-12-06T14:14:03.646Z,19.83
2022-12-06T14:16:36.474Z,23.02
2022-12-06T14:19:15.455Z,20.27
2022-12-06T14:21:45.808Z,18.85
2022-12-06T14:24:29.966Z,17.73
2022-12-06T14:27:15.517Z,21.25
2022-12-06T14:29:45.450Z,20.05
2022-12-06T14:32:13.845Z,18.00
2022-12-06T14:34:41.915Z,20.77
2022-12-06T14:37:19.743Z,17.08
2022-12-06T14:39:53.313Z,19.33
2022-12-06T14:42:41.370Z,19.20
2022-12-06T14:45:15.294Z,20.42
2022-12-06T14:47:45.414Z,19.98
2022-12-06T14:50:33.237Z,28.70
2022-12-06T14:53:06.416Z,22.52
2022-12-06T14:55:37.831Z,20.63
2022-12-06T14:58:16.572Z,35.15
2022-12-06T15:00:52.948Z,26.35
2022-12-06T15:03:29.074Z,23.73
2022-12-06T15:06:19.110Z,23.17
2022-12-06T15:08:53.645Z,21.92
2022-12-06T15:11:48.628Z,20.42
2022-12-06T15:16:47.564Z,20.38
2022-12-06T15:19:17.542Z,24.33
2022-12-06T15:21:45.725Z,19.27
2022-12-06T15:24:18.844Z,21.38
2022-12-06T15:26:48.628Z,20.13
2022-12-06T15:29:17.430Z,22.25
2022-12-06T15:31:49.720Z,25.63
2022-12-06T15:34:24.864Z,23.80
2022-12-06T15:37:08.935Z,24.50
2022-12-06T15:39:41.680Z,22.27
2022-12-06T15:42:17.850Z,20.20
2022-12-06T15:44:49.403Z,22.75
2022-12-06T15:47:19.573Z,26.23
2022-12-06T15:49:48.900Z,23.60
2022-12-06T15:52:18.345Z,27.42
2022-12-06T15:54:47.118Z,29.48
2022-12-06T15:57:17.171Z,27.23
2022-12-06T15:59:45.398Z,28.95
2022-12-06T16:02:15.880Z,30.48
2022-12-06T16:04:44.587Z,27.60
2022-12-06T16:07:18.529Z,22.23
2022-12-06T16:09:47.300Z,24.92
2022-12-06T16:12:17.006Z,25.60
2022-12-06T16:14:45.339Z,32.28
2022-12-06T16:17:13.406Z,27.15
2022-12-06T16:19:58.890Z,28.92
2022-12-06T16:22:40.854Z,36.28
2022-12-06T16:25:09.589Z,37.13
2022-12-06T16:27:39.081Z,36.03
2022-12-06T16:30:08.490Z,32.70
2022-12-06T16:32:36.655Z,33.85
2022-12-06T16:35:05.047Z,29.70
2022-12-06T16:37:33.192Z,29.50
2022-12-06T16:40:01.349Z,43.53
2022-12-06T16:42:29.473Z,29.33
2022-12-06T16:44:59.150Z,34.85
2022-12-06T16:49:54.722Z,32.80
2022-12-06T16:52:22.974Z,29.02
2022-12-06T16:54:51.019Z,29.40
2022-12-06T16:57:19.541Z,32.92
2022-12-06T16:59:47.944Z,32.55
2022-12-06T17:02:27.595Z,33.22
2022-12-06T17:04:56.300Z,31.65
2022-12-06T17:07:24.710Z,26.58
2022-12-06T17:09:52.901Z,23.52
2022-12-06T17:12:21.234Z,24.13
2022-12-06T17:14:49.404Z,25.70
2022-12-06T17:17:21.288Z,22.10
2022-12-06T17:19:50.521Z,19.93
2022-12-06T17:22:19.046Z,21.38
2022-12-06T17:24:47.619Z,24.23
2022-12-06T17:27:16.385Z,27.38
2022-12-06T17:29:45.395Z,17.13
2022-12-06T17:32:13.818Z,23.52
2022-12-06T17:34:43.321Z,16.45
2022-12-06T17:37:11.803Z,15.68
2022-12-06T17:39:40.027Z,17.00
2022-12-06T17:42:26.021Z,16.73
2022-12-06T17:44:54.254Z,14.75
2022-12-06T17:47:22.478Z,19.38
2022-12-06T17:49:52.669Z,17.27
2022-12-06T17:52:21.008Z,18.98
2022-12-06T17:54:49.276Z,30.13
2022-12-06T17:57:19.353Z,19.88
2022-12-06T17:59:48.698Z,28.13
2022-12-06T18:02:19.546Z,26.80
2022-12-06T18:04:48.628Z,25.27
2022-12-06T18:07:18.561Z,23.65
2022-12-06T18:09:46.978Z,29.27
2022-12-06T18:12:16.178Z,33.22
2022-12-06T18:14:44.753Z,30.80
2022-12-06T18:17:13.421Z,30.45
2022-12-06T18:19:41.889Z,36.13
2022-12-06T18:22:10.234Z,27.00
2022-12-06T18:24:39.799Z,40.28
2022-12-06T18:27:08.247Z,34.97
2022-12-06T18:29:36.593Z,36.33
2022-12-06T18:32:06.566Z,36.00
2022-12-06T18:34:35.222Z,40.30
2022-12-06T18:37:03.540Z,38.53
2022-12-06T18:39:31.928Z,44.67
2022-12-06T18:42:01.488Z,45.95
2022-12-06T18:44:29.710Z,43.10
2022-12-06T18:47:00.599Z,43.45
2022-12-06T18:49:31.109Z,49.65
2022-12-06T18:51:59.241Z,42.40
2022-12-06T18:54:28.211Z,40.53
2022-12-06T18:56:58.898Z,45.25
2022-12-06T18:59:29.309Z,40.20
2022-12-06T19:01:57.649Z,45.72
2022-12-06T19:04:26.071Z,44.17
2022-12-06T19:06:56.882Z,42.40
2022-12-06T19:09:25.033Z,46.15
2022-12-06T19:11:53.122Z,40.92
2022-12-06T19:14:22.993Z,43.78
2022-12-06T19:16:53.435Z,48.45
2022-12-06T19:19:24.043Z,48.42
2022-12-06T19:21:53.929Z,44.45
2022-12-06T19:24:23.723Z,45.85
2022-12-06T19:26:53.045Z,50.42
2022-12-06T19:29:22.074Z,42.05
2022-12-06T19:31:50.354Z,42.17
2022-12-06T19:34:22.366Z,44.17
2022-12-06T19:36:51.384Z,40.35
2022-12-06T19:39:20.423Z,43.63
2022-12-06T19:42:06.783Z,48.22
2022-12-06T19:44:35.788Z,43.85
2022-12-06T19:47:04.229Z,44.33
2022-12-06T19:49:33.976Z,46.53
2022-12-06T19:52:02.183Z,41.08
2022-12-06T19:54:32.709Z,44.63
2022-12-06T19:57:02.208Z,47.95
2022-12-06T19:59:32.180Z,41.83
2022-12-06T20:02:00.534Z,37.10
2022-12-06T20:04:31.277Z,40.35
2022-12-06T20:07:01.999Z,39.92
2022-12-06T20:09:31.200Z,42.10
2022-12-06T20:12:09.718Z,40.75
2022-12-06T20:14:40.068Z,40.17
2022-12-06T20:17:10.523Z,43.78
2022-12-06T20:19:39.613Z,41.03
2022-12-06T20:22:16.815Z,39.25
2022-12-06T20:24:46.754Z,38.78
2022-12-06T20:27:15.500Z,36.45
2022-12-06T20:29:43.855Z,41.80
2022-12-06T20:32:12.224Z,38.97
2022-12-06T20:34:40.793Z,40.78
2022-12-06T20:37:10.547Z,39.38
2022-12-06T20:39:38.628Z,35.00
2022-12-06T20:42:07.495Z,37.53
2022-12-06T20:44:36.779Z,37.60
2022-12-06T20:47:05.225Z,37.60
2022-12-06T20:49:33.514Z,34.97
2022-12-06T20:52:02.976Z,34.65
2022-12-06T20:54:32.604Z,40.50
2022-12-06T20:57:01.948Z,42.85
2022-12-06T20:59:30.289Z,41.03
2022-12-06T21:01:58.802Z,47.92
2022-12-06T21:04:28.048Z,44.90
2022-12-06T21:06:56.905Z,53.97
2022-12-06T21:09:25.149Z,50.53
2022-12-06T21:11:54.573Z,47.63
2022-12-06T21:14:23.207Z,37.17
2022-12-06T21:16:52.194Z,40.78
2022-12-06T21:19:20.820Z,38.88
2022-12-06T21:21:55.364Z,36.55
2022-12-06T21:24:26.864Z,32.92
2022-12-06T21:26:56.529Z,28.67
2022-12-06T21:29:30.914Z,28.90
2022-12-06T21:34:29.209Z,30.02
2022-12-06T21:36:57.337Z,36.70
2022-12-06T21:39:25.764Z,28.40
2022-12-06T21:41:57.571Z,31.23
2022-12-06T21:44:28.162Z,32.57
2022-12-06T21:46:56.435Z,29.95
2022-12-06T21:49:24.870Z,22.58
2022-12-06T21:52:00.354Z,24.88
2022-12-06T21:54:31.532Z,23.17
2022-12-06T21:57:01.517Z,25.17
2022-12-06T21:59:30.150Z,22.88
2022-12-06T22:02:01.310Z,24.15
2022-12-06T22:04:29.505Z,18.77
2022-12-06T22:06:57.904Z,20.08
2022-12-06T22:09:25.951Z,21.33
2022-12-06T22:11:54.375Z,19.55
2022-12-06T22:14:23.857Z,17.85
2022-12-06T22:16:52.025Z,17.67
2022-12-06T22:19:20.125Z,19.00
2022-12-06T22:21:48.742Z,20.10
2022-12-06T22:24:16.842Z,18.63
2022-12-06T22:26:44.896Z,12.95
2022-12-06T22:29:13.523Z,14.70
2022-12-06T22:31:43.599Z,16.63
2022-12-06T22:34:12.352Z,16.27
2022-12-06T22:36:40.671Z,20.92
2022-12-06T22:39:08.702Z,22.65
2022-12-06T22:41:37.202Z,19.98
2022-12-06T22:44:07.132Z,17.30
2022-12-06T22:46:36.664Z,19.45
2022-12-06T22:49:07.103Z,19.85
2022-12-06T22:51:36.758Z,19.55
2022-12-06T22:54:06.769Z,16.90
2022-12-06T22:56:35.422Z,17.27
2022-12-06T22:59:03.939Z,15.40
2022-12-06T23:01:33.362Z,22.58
2022-12-06T23:04:03.441Z,19.55
2022-12-06T23:06:36.387Z,24.05
2022-12-06T23:09:04.912Z,29.92
2022-12-06T23:11:35.097Z,25.83
2022-12-06T23:14:04.241Z,28.23
2022-12-06T23:16:33.127Z,26.10
2022-12-06T23:19:03.415Z,27.17
2022-12-06T23:21:33.426Z,28.75
2022-12-06T23:24:05.110Z,34.33
2022-12-06T23:26:34.984Z,43.17
2022-12-06T23:29:03.550Z,40.72
2022-12-06T23:31:33.903Z,41.33
2022-12-06T23:34:04.662Z,50.50
2022-12-06T23:36:34.680Z,50.60
2022-12-06T23:39:05.435Z,40.20
2022-12-06T23:41:34.329Z,43.88
2022-12-06T23:44:02.881Z,44.30
2022-12-06T23:46:32.348Z,48.15
2022-12-06T23:49:00.969Z,40.40
2022-12-06T23:51:33.895Z,41.97
2022-12-06T23:54:05.384Z,52.63
2022-12-06T23:56:36.980Z,41.97
2022-12-06T23:59:06.714Z,43.22
